createdAt,value
2023-05-24T00:15:53.567Z,0
2023-05-24T00:16:50.918Z,0
2023-05-24T00:17:51.042Z,0
2023-05-24T00:19:51.625Z,0
2023-05-24T00:20:53.782Z,0
2023-05-24T00:21:53.299Z,0
2023-05-24T00:22:53.999Z,0
2023-05-24T00:23:54.673Z,0
2023-05-24T00:24:55.750Z,0
2023-05-24T00:25:56.636Z,0
2023-05-24T00:26:57.237Z,0
2023-05-24T00:27:58.334Z,0
2023-05-24T00:28:58.710Z,0
2023-05-24T00:29:59.600Z,0
2023-05-24T00:31:00.119Z,0
2023-05-24T00:32:01.315Z,0
2023-05-24T00:33:01.581Z,0
2023-05-24T00:34:02.363Z,0
2023-05-24T00:35:02.876Z,0
2023-05-24T00:36:03.639Z,0
2023-05-24T00:37:04.728Z,0
2023-05-24T00:38:05.008Z,0
2023-05-24T00:39:05.619Z,0
2023-05-24T00:40:06.326Z,0
2023-05-24T00:41:07.295Z,0
2023-05-24T00:42:08.101Z,0
2023-05-24T00:43:08.811Z,0
2023-05-24T00:44:09.097Z,0
2023-05-24T00:45:09.570Z,0
2023-05-24T00:46:10.029Z,0
2023-05-24T00:47:11.105Z,0
2023-05-24T00:48:10.780Z,0
2023-05-24T00:49:11.061Z,0
2023-05-24T00:50:12.506Z,0
2023-05-24T00:51:12.602Z,0
2023-05-24T00:52:13.284Z,0
2023-05-24T00:53:13.788Z,0
2023-05-24T00:54:14.474Z,0
2023-05-24T00:55:15.170Z,0
2023-05-24T00:56:15.783Z,0
2023-05-24T00:57:16.502Z,0
2023-05-24T00:58:17.260Z,0
2023-05-24T00:59:17.543Z,0
2023-05-24T01:00:18.362Z,0
2023-05-24T01:01:19.322Z,0
2023-05-24T01:02:20.703Z,0
2023-05-24T01:03:20.884Z,0
2023-05-24T01:04:20.725Z,0
2023-05-24T01:05:21.054Z,0
2023-05-24T01:06:22.089Z,0
2023-05-24T01:07:23.041Z,0
2023-05-24T01:08:23.935Z,0
2023-05-24T01:09:24.391Z,0
2023-05-24T01:10:24.694Z,0
2023-05-24T01:11:24.957Z,0
2023-05-24T01:12:25.436Z,0
2023-05-24T01:13:25.906Z,0
2023-05-24T01:14:26.805Z,0
2023-05-24T01:15:27.291Z,0
2023-05-24T01:16:28.057Z,0
2023-05-24T01:17:29.389Z,0
2023-05-24T01:18:29.731Z,0
2023-05-24T01:19:29.883Z,0
2023-05-24T01:20:31.081Z,0
2023-05-24T01:21:30.589Z,0
2023-05-24T01:22:31.066Z,0
2023-05-24T01:23:31.583Z,0
2023-05-24T01:24:32.046Z,0
2023-05-24T01:25:32.114Z,0
2023-05-24T01:26:32.790Z,0
2023-05-24T01:27:33.904Z,0
2023-05-24T01:28:34.007Z,0
2023-05-24T01:29:34.631Z,0
2023-05-24T01:30:35.319Z,0
2023-05-24T01:31:36.658Z,0
2023-05-24T01:32:37.121Z,0
2023-05-24T01:33:36.874Z,0
2023-05-24T01:34:37.570Z,0
2023-05-24T01:35:37.505Z,0
2023-05-24T01:36:38.272Z,0
2023-05-24T01:37:38.791Z,0
2023-05-24T01:38:39.476Z,0
2023-05-24T01:39:40.060Z,0
2023-05-24T01:40:40.932Z,0
2023-05-24T01:41:42.065Z,0
2023-05-24T01:42:41.748Z,0
2023-05-24T01:43:42.439Z,0
2023-05-24T01:44:42.924Z,0
2023-05-24T01:48:45.511Z,0
2023-05-24T01:49:45.599Z,0
2023-05-24T02:11:46.611Z,0
2023-05-24T02:12:46.447Z,0
2023-05-24T02:13:46.942Z,0
2023-05-24T02:14:47.612Z,0
2023-05-24T02:15:48.127Z,0
2023-05-24T02:16:49.397Z,0
2023-05-24T02:17:50.166Z,0
2023-05-24T02:18:50.716Z,0
2023-05-24T02:19:51.222Z,0
2023-05-24T02:20:52.982Z,0
2023-05-24T02:21:52.482Z,0
2023-05-24T02:22:53.184Z,0
2023-05-24T02:23:53.607Z,0
2023-05-24T02:24:54.427Z,0
2023-05-24T02:25:55.156Z,0
2023-05-24T02:26:56.123Z,0
2023-05-24T02:27:56.039Z,0
2023-05-24T02:28:56.558Z,0
2023-05-24T02:29:57.076Z,0
2023-05-24T02:30:57.717Z,0
2023-05-24T02:31:58.280Z,0
2023-05-24T02:32:58.939Z,0
2023-05-24T02:33:59.353Z,0
2023-05-24T02:34:59.875Z,0
2023-05-24T02:36:00.187Z,0
2023-05-24T02:37:01.107Z,0
2023-05-24T02:38:01.978Z,0
2023-05-24T02:39:02.471Z,0
2023-05-24T02:40:03.377Z,0
2023-05-24T02:41:04.073Z,0
2023-05-24T02:42:04.997Z,0
2023-05-24T02:43:04.723Z,0
2023-05-24T02:44:05.655Z,0
2023-05-24T02:45:05.134Z,0
2023-05-24T02:46:06.086Z,0
2023-05-24T02:47:06.807Z,0
2023-05-24T02:48:07.982Z,0
2023-05-24T02:49:07.875Z,0
2023-05-24T02:50:08.616Z,0
2023-05-24T02:51:09.349Z,0
2023-05-24T02:52:09.734Z,0
2023-05-24T02:53:10.246Z,0
2023-05-24T02:54:10.330Z,0
2023-05-24T02:55:11.428Z,0
2023-05-24T02:56:12.019Z,0
2023-05-24T02:57:13.034Z,0
2023-05-24T02:58:13.140Z,0
2023-05-24T02:59:13.673Z,0
2023-05-24T03:00:14.147Z,0
2023-05-24T03:01:14.863Z,0
2023-05-24T03:02:16.183Z,0
2023-05-24T03:03:17.041Z,0
2023-05-24T03:04:17.204Z,0
2023-05-24T03:05:18.128Z,0
2023-05-24T03:06:18.610Z,0
2023-05-24T03:07:19.315Z,0
2023-05-24T03:08:19.577Z,0
2023-05-24T03:09:20.069Z,0
2023-05-24T03:10:21.831Z,0
2023-05-24T03:11:21.316Z,0
2023-05-24T03:12:22.374Z,0
2023-05-24T03:13:22.053Z,0
2023-05-24T03:14:22.536Z,0
2023-05-24T03:15:23.064Z,0
2023-05-24T03:16:23.712Z,0
2023-05-24T03:17:24.672Z,0
2023-05-24T03:18:24.838Z,0
2023-05-24T03:19:25.726Z,0
2023-05-24T03:20:26.458Z,0
2023-05-24T03:21:27.196Z,0
2023-05-24T03:22:27.549Z,0
2023-05-24T03:23:27.633Z,4
2023-05-24T03:24:28.558Z,4
2023-05-24T03:25:29.230Z,4
2023-05-24T03:26:29.939Z,4
2023-05-24T03:27:30.965Z,4
2023-05-24T03:28:30.854Z,0
2023-05-24T03:29:31.174Z,0
2023-05-24T03:30:31.287Z,0
2023-05-24T03:31:32.100Z,0
2023-05-24T03:32:32.859Z,4
2023-05-24T03:33:33.803Z,4
2023-05-24T03:34:34.556Z,4
2023-05-24T03:35:35.648Z,0
2023-05-24T03:36:36.166Z,4
2023-05-24T03:37:36.440Z,4
2023-05-24T03:38:36.925Z,4
2023-05-24T03:39:37.488Z,4
2023-05-24T03:40:37.814Z,8
2023-05-24T03:41:38.607Z,4
2023-05-24T03:42:40.226Z,8
2023-05-24T03:43:40.140Z,8
2023-05-24T03:44:40.817Z,8
2023-05-24T03:45:50.044Z,8
2023-05-24T03:47:42.759Z,8
2023-05-24T03:48:43.556Z,8
2023-05-24T03:49:43.516Z,8
2023-05-24T03:50:44.958Z,12
2023-05-24T03:51:44.724Z,8
2023-05-24T03:52:44.908Z,12
2023-05-24T03:53:45.628Z,8
2023-05-24T03:54:46.537Z,12
2023-05-24T03:55:46.884Z,12
2023-05-24T03:56:47.178Z,12
2023-05-24T03:57:48.355Z,12
2023-05-24T03:58:48.258Z,16
2023-05-24T03:59:52.284Z,16
2023-05-24T04:00:50.204Z,16
2023-05-24T04:01:49.931Z,12
2023-05-24T04:02:50.945Z,16
2023-05-24T04:03:51.778Z,16
2023-05-24T04:04:51.978Z,20
2023-05-24T04:05:52.276Z,24
2023-05-24T04:06:53.235Z,20
2023-05-24T04:07:53.976Z,16
2023-05-24T04:08:54.873Z,20
2023-05-24T04:09:55.397Z,20
2023-05-24T04:10:56.024Z,20
2023-05-24T04:11:56.976Z,24
2023-05-24T04:12:58.190Z,24
2023-05-24T04:13:58.131Z,28
2023-05-24T04:14:59.030Z,28
2023-05-24T04:15:59.922Z,36
2023-05-24T04:17:00.813Z,36
2023-05-24T04:18:02.140Z,40
2023-05-24T04:19:02.279Z,44
2023-05-24T04:20:02.197Z,44
2023-05-24T04:21:03.050Z,48
2023-05-24T04:22:03.530Z,48
2023-05-24T04:23:04.837Z,52
2023-05-24T04:24:05.555Z,56
2023-05-24T04:25:06.519Z,60
2023-05-24T04:26:06.563Z,60
2023-05-24T04:27:07.251Z,64
2023-05-24T04:28:08.268Z,60
2023-05-24T04:29:08.006Z,64
2023-05-24T04:30:08.876Z,64
2023-05-24T04:31:09.703Z,56
2023-05-24T04:32:10.492Z,56
2023-05-24T04:33:11.564Z,52
2023-05-24T04:34:12.130Z,48
2023-05-24T04:35:12.824Z,48
2023-05-24T04:36:13.131Z,44
2023-05-24T04:37:13.633Z,44
2023-05-24T04:38:13.941Z,44
2023-05-24T04:39:14.274Z,40
2023-05-24T04:40:14.791Z,44
2023-05-24T04:41:15.267Z,40
2023-05-24T04:42:15.751Z,36
2023-05-24T04:43:16.613Z,36
2023-05-24T04:44:16.164Z,32
2023-05-24T04:45:17.198Z,32
2023-05-24T04:46:19.872Z,28
2023-05-24T04:47:18.392Z,32
2023-05-24T04:48:19.104Z,32
2023-05-24T04:49:19.447Z,28
2023-05-24T04:50:20.549Z,32
2023-05-24T04:51:21.302Z,36
2023-05-24T04:52:21.974Z,40
2023-05-24T04:53:22.264Z,36
2023-05-24T04:54:23.151Z,28
2023-05-24T04:55:23.650Z,24
2023-05-24T04:56:24.129Z,28
2023-05-24T04:57:24.786Z,28
2023-05-24T04:58:26.130Z,28
2023-05-24T04:59:25.835Z,32
2023-05-24T05:00:26.542Z,36
2023-05-24T05:01:27.604Z,40
2023-05-24T05:02:27.353Z,32
2023-05-24T05:03:28.345Z,28
2023-05-24T05:04:28.174Z,24
2023-05-24T05:05:29.073Z,32
2023-05-24T05:06:29.595Z,28
2023-05-24T05:07:30.281Z,28
2023-05-24T05:08:30.766Z,36
2023-05-24T05:09:31.650Z,48
2023-05-24T05:10:35.008Z,52
2023-05-24T05:11:32.674Z,60
2023-05-24T05:12:33.368Z,72
2023-05-24T05:13:34.237Z,76
2023-05-24T05:14:33.977Z,88
2023-05-24T05:15:34.662Z,96
2023-05-24T05:16:35.654Z,104
2023-05-24T05:17:36.774Z,112
2023-05-24T05:18:36.995Z,116
2023-05-24T05:19:37.788Z,128
2023-05-24T05:20:38.167Z,132
2023-05-24T05:21:38.914Z,136
2023-05-24T05:22:41.747Z,132
2023-05-24T05:23:39.678Z,132
2023-05-24T05:24:40.415Z,128
2023-05-24T05:25:41.316Z,136
2023-05-24T05:26:41.934Z,140
2023-05-24T05:27:42.433Z,136
2023-05-24T05:28:43.197Z,144
2023-05-24T05:29:43.122Z,144
2023-05-24T05:30:43.849Z,144
2023-05-24T05:31:44.686Z,148
2023-05-24T05:32:46.002Z,144
2023-05-24T05:33:45.991Z,152
2023-05-24T05:34:46.675Z,148
2023-05-24T05:35:47.046Z,148
2023-05-24T05:36:47.936Z,148
2023-05-24T05:37:48.675Z,148
2023-05-24T05:38:49.399Z,140
2023-05-24T05:39:49.992Z,140
2023-05-24T05:40:50.698Z,140
2023-05-24T05:41:52.663Z,144
2023-05-24T05:42:51.381Z,140
2023-05-24T05:43:52.467Z,140
2023-05-24T05:44:52.193Z,148
2023-05-24T05:45:52.670Z,140
2023-05-24T05:46:53.450Z,136
2023-05-24T05:47:54.444Z,140
2023-05-24T05:48:57.102Z,136
2023-05-24T05:49:55.631Z,124
2023-05-24T05:50:57.118Z,136
2023-05-24T05:51:57.834Z,132
2023-05-24T05:52:58.741Z,128
2023-05-24T05:53:59.175Z,120
2023-05-24T05:55:00.123Z,116
2023-05-24T05:56:00.820Z,104
2023-05-24T05:57:01.829Z,92
2023-05-24T05:58:02.504Z,88
2023-05-24T05:59:03.515Z,88
2023-05-24T06:00:03.250Z,80
2023-05-24T06:01:03.955Z,84
2023-05-24T06:02:04.859Z,104
2023-05-24T06:03:06.175Z,136
2023-05-24T06:05:06.785Z,164
2023-05-24T06:06:07.607Z,164
2023-05-24T06:07:08.494Z,152
2023-05-24T06:08:09.190Z,176
2023-05-24T06:09:09.896Z,164
2023-05-24T06:10:10.874Z,140
2023-05-24T06:11:11.370Z,120
2023-05-24T06:12:12.098Z,120
2023-05-24T06:13:12.848Z,120
2023-05-24T06:14:13.612Z,112
2023-05-24T06:15:13.533Z,108
2023-05-24T06:16:14.043Z,120
2023-05-24T06:17:14.489Z,140
2023-05-24T06:18:15.225Z,156
2023-05-24T06:19:17.938Z,184
2023-05-24T06:20:16.508Z,172
2023-05-24T06:21:17.098Z,148
2023-05-24T06:22:18.193Z,148
2023-05-24T06:23:19.119Z,136
2023-05-24T06:24:19.533Z,148
2023-05-24T06:25:19.853Z,160
2023-05-24T06:28:21.179Z,132
2023-05-24T06:30:22.414Z,124
2023-05-24T06:31:23.780Z,116
2023-05-24T06:32:23.662Z,120
2023-05-24T06:33:24.979Z,108
2023-05-24T06:34:25.426Z,124
2023-05-24T06:35:26.316Z,160
2023-05-24T06:36:27.184Z,172
2023-05-24T06:37:28.059Z,152
2023-05-24T06:38:28.573Z,144
2023-05-24T06:39:29.448Z,152
2023-05-24T06:40:30.341Z,144
2023-05-24T06:41:30.855Z,144
2023-05-24T06:42:31.544Z,140
2023-05-24T06:43:32.310Z,144
2023-05-24T06:44:36.470Z,144
2023-05-24T06:45:34.310Z,140
2023-05-24T06:46:35.299Z,140
2023-05-24T06:47:36.562Z,140
2023-05-24T06:48:36.612Z,144
2023-05-24T06:49:36.487Z,148
2023-05-24T06:50:37.822Z,140
2023-05-24T06:51:37.221Z,148
2023-05-24T06:52:38.145Z,152
2023-05-24T06:53:39.202Z,140
2023-05-24T06:54:39.253Z,140
2023-05-24T06:55:39.798Z,132
2023-05-24T06:56:40.297Z,140
2023-05-24T06:57:41.201Z,144
2023-05-24T06:58:40.905Z,144
2023-05-24T06:59:42.179Z,160
2023-05-24T07:00:42.026Z,168
2023-05-24T07:01:43.466Z,176
2023-05-24T07:02:43.766Z,176
2023-05-24T07:03:43.941Z,176
2023-05-24T07:04:45.087Z,188
2023-05-24T07:05:44.913Z,188
2023-05-24T07:06:45.484Z,184
2023-05-24T07:07:46.571Z,184
2023-05-24T07:08:47.284Z,196
2023-05-24T07:09:48.414Z,188
2023-05-24T07:10:50.021Z,228
2023-05-24T07:11:49.552Z,216
2023-05-24T07:12:50.482Z,224
2023-05-24T07:13:51.377Z,228
2023-05-24T07:14:52.698Z,224
2023-05-24T07:15:52.655Z,184
2023-05-24T07:16:52.640Z,164
2023-05-24T07:17:53.583Z,140
2023-05-24T07:18:54.386Z,128
2023-05-24T07:19:55.100Z,108
2023-05-24T07:20:56.589Z,104
2023-05-24T07:21:56.262Z,108
2023-05-24T07:22:56.952Z,112
2023-05-24T07:23:58.174Z,104
2023-05-24T07:24:58.452Z,100
2023-05-24T07:25:59.582Z,116
2023-05-24T07:27:01.053Z,120
2023-05-24T07:27:59.774Z,112
2023-05-24T07:29:00.925Z,136
2023-05-24T07:30:01.111Z,172
2023-05-24T07:31:01.852Z,184
2023-05-24T07:32:01.849Z,196
2023-05-24T07:33:02.663Z,208
2023-05-24T07:34:03.423Z,212
2023-05-24T07:35:04.155Z,224
2023-05-24T07:36:04.867Z,236
2023-05-24T07:37:04.987Z,248
2023-05-24T07:38:05.529Z,268
2023-05-24T07:39:06.456Z,296
2023-05-24T07:40:07.411Z,332
2023-05-24T07:41:07.573Z,360
2023-05-24T07:42:08.493Z,396
2023-05-24T07:43:10.015Z,428
2023-05-24T07:44:10.138Z,428
2023-05-24T07:45:10.994Z,428
2023-05-24T07:46:11.666Z,448
2023-05-24T07:47:11.549Z,448
2023-05-24T07:48:12.836Z,432
2023-05-24T07:49:13.174Z,420
2023-05-24T07:50:13.067Z,404
2023-05-24T07:51:13.755Z,416
2023-05-24T07:52:14.448Z,416
2023-05-24T07:53:15.204Z,420
2023-05-24T07:54:16.104Z,424
2023-05-24T07:55:16.734Z,404
2023-05-24T07:56:17.830Z,376
2023-05-24T07:57:20.450Z,348
2023-05-24T07:58:19.115Z,372
2023-05-24T07:59:19.489Z,380
2023-05-24T08:00:21.173Z,364
2023-05-24T08:01:21.395Z,356
2023-05-24T08:02:21.366Z,336
2023-05-24T08:03:23.078Z,312
2023-05-24T08:04:23.134Z,296
2023-05-24T08:05:23.580Z,288
2023-05-24T08:06:24.317Z,280
2023-05-24T08:07:25.768Z,268
2023-05-24T08:08:25.535Z,260
2023-05-24T08:09:26.216Z,256
2023-05-24T08:10:26.417Z,244
2023-05-24T08:11:27.308Z,252
2023-05-24T08:12:28.209Z,248
2023-05-24T08:13:28.736Z,236
2023-05-24T08:14:29.449Z,228
2023-05-24T08:15:30.999Z,232
2023-05-24T08:16:31.202Z,240
2023-05-24T08:17:32.029Z,240
2023-05-24T08:18:33.205Z,248
2023-05-24T08:19:34.008Z,264
2023-05-24T08:20:35.126Z,280
2023-05-24T08:21:34.923Z,288
2023-05-24T08:22:35.666Z,292
2023-05-24T08:23:36.214Z,288
2023-05-24T08:24:37.322Z,292
2023-05-24T08:25:37.815Z,300
2023-05-24T08:26:38.342Z,296
2023-05-24T08:27:39.324Z,312
2023-05-24T08:28:39.527Z,324
2023-05-24T08:29:40.249Z,316
2023-05-24T08:30:41.632Z,312
2023-05-24T08:31:42.876Z,320
2023-05-24T08:32:42.526Z,316
2023-05-24T08:33:43.330Z,296
2023-05-24T08:34:44.259Z,292
2023-05-24T08:35:45.144Z,300
2023-05-24T08:36:46.313Z,308
2023-05-24T08:37:47.205Z,312
2023-05-24T08:38:47.917Z,308
2023-05-24T08:39:49.070Z,300
2023-05-24T08:40:49.898Z,292
2023-05-24T08:42:12.716Z,212
2023-05-24T08:43:52.531Z,144
2023-05-24T08:44:52.504Z,160
2023-05-24T08:45:54.097Z,180
2023-05-24T08:46:54.262Z,164
2023-05-24T08:47:54.724Z,148
2023-05-24T08:48:54.786Z,160
2023-05-24T08:49:56.052Z,188
2023-05-24T08:50:55.756Z,228
2023-05-24T08:51:56.863Z,228
2023-05-24T08:52:57.905Z,240
2023-05-24T08:53:58.369Z,244
2023-05-24T08:54:59.210Z,240
2023-05-24T08:55:59.471Z,236
2023-05-24T08:57:00.272Z,232
2023-05-24T08:58:01.011Z,240
2023-05-24T08:59:02.018Z,240
2023-05-24T09:00:03.177Z,244
2023-05-24T09:01:03.918Z,268
2023-05-24T09:02:04.321Z,264
2023-05-24T09:03:04.632Z,272
2023-05-24T09:04:05.764Z,268
2023-05-24T09:05:06.063Z,296
2023-05-24T09:06:06.844Z,316
2023-05-24T09:07:07.572Z,332
2023-05-24T09:08:08.410Z,336
2023-05-24T09:09:09.182Z,324
2023-05-24T09:10:10.127Z,320
2023-05-24T09:11:11.377Z,348
2023-05-24T09:12:16.828Z,384
2023-05-24T09:13:13.022Z,412
2023-05-24T09:14:12.868Z,424
2023-05-24T09:15:14.300Z,460
2023-05-24T09:16:14.688Z,484
2023-05-24T09:17:15.021Z,524
2023-05-24T09:18:15.113Z,564
2023-05-24T09:19:15.888Z,612
2023-05-24T09:20:17.649Z,644
2023-05-24T09:21:17.772Z,668
2023-05-24T09:22:18.717Z,684
2023-05-24T09:23:19.650Z,700
2023-05-24T09:24:20.554Z,724
2023-05-24T09:25:21.407Z,732
2023-05-24T09:26:21.982Z,740
2023-05-24T09:27:21.909Z,756
2023-05-24T09:28:22.501Z,788
2023-05-24T09:29:23.220Z,816
2023-05-24T09:30:24.244Z,848
2023-05-24T09:31:24.821Z,868
2023-05-24T09:32:25.102Z,872
2023-05-24T09:33:25.168Z,864
2023-05-24T09:34:25.628Z,860
2023-05-24T09:35:25.919Z,860
2023-05-24T09:36:27.176Z,864
2023-05-24T09:37:35.295Z,864
2023-05-24T09:38:27.011Z,836
2023-05-24T09:39:27.716Z,796
2023-05-24T09:40:28.634Z,760
2023-05-24T09:41:28.327Z,720
2023-05-24T09:42:29.229Z,664
2023-05-24T09:43:32.204Z,592
2023-05-24T09:44:31.138Z,540
2023-05-24T09:45:32.038Z,492
2023-05-24T09:46:33.192Z,452
2023-05-24T09:47:34.051Z,424
2023-05-24T09:48:33.994Z,400
2023-05-24T09:49:35.068Z,380
2023-05-24T09:50:35.603Z,368
2023-05-24T09:51:37.047Z,372
2023-05-24T09:52:41.235Z,380
2023-05-24T09:53:38.140Z,376
2023-05-24T09:54:39.241Z,352
2023-05-24T09:55:40.294Z,316
2023-05-24T09:56:40.136Z,288
2023-05-24T09:57:41.092Z,280
2023-05-24T09:58:42.358Z,276
2023-05-24T09:59:42.610Z,244
2023-05-24T10:00:43.863Z,208
2023-05-24T10:01:44.912Z,184
2023-05-24T10:02:59.958Z,156
2023-05-24T10:04:45.768Z,160
2023-05-24T10:05:46.076Z,168
2023-05-24T10:06:46.545Z,176
2023-05-24T10:07:47.258Z,176
2023-05-24T10:08:48.183Z,176
2023-05-24T10:09:49.091Z,188
2023-05-24T10:10:50.260Z,212
2023-05-24T10:11:49.396Z,228
2023-05-24T10:12:50.217Z,240
2023-05-24T10:13:50.719Z,244
2023-05-24T10:14:51.447Z,232
2023-05-24T10:15:51.863Z,224
2023-05-24T10:16:53.403Z,240
2023-05-24T10:17:53.668Z,276
2023-05-24T10:18:53.782Z,312
2023-05-24T10:19:55.071Z,328
2023-05-24T10:20:57.184Z,352
2023-05-24T10:21:55.412Z,356
2023-05-24T10:22:56.373Z,352
2023-05-24T10:23:56.760Z,344
2023-05-24T10:24:57.709Z,344
2023-05-24T10:25:58.435Z,348
2023-05-24T10:26:59.039Z,360
2023-05-24T10:27:58.859Z,376
2023-05-24T10:28:59.904Z,392
2023-05-24T10:30:00.411Z,408
2023-05-24T10:31:01.982Z,424
2023-05-24T10:32:02.235Z,424
2023-05-24T10:33:03.115Z,416
2023-05-24T10:34:14.488Z,412
2023-05-24T10:36:06.036Z,424
2023-05-24T10:37:05.019Z,436
2023-05-24T10:38:05.749Z,460
2023-05-24T10:39:06.907Z,472
2023-05-24T10:40:07.680Z,484
2023-05-24T10:41:08.997Z,488
2023-05-24T10:42:09.881Z,504
2023-05-24T10:43:09.776Z,524
2023-05-24T10:44:20.477Z,592
2023-05-24T10:46:11.957Z,680
2023-05-24T10:47:12.384Z,748
2023-05-24T10:48:12.515Z,764
2023-05-24T10:49:13.510Z,784
2023-05-24T10:50:14.105Z,760
2023-05-24T10:51:14.822Z,764
2023-05-24T10:52:15.812Z,748
2023-05-24T10:53:15.888Z,676
2023-05-24T10:54:19.679Z,732
2023-05-24T10:55:17.749Z,632
2023-05-24T10:56:18.480Z,608
2023-05-24T10:57:19.482Z,752
2023-05-24T10:58:20.334Z,756
2023-05-24T10:59:21.356Z,704
2023-05-24T11:00:53.389Z,600
2023-05-24T11:01:23.098Z,612
2023-05-24T11:02:24.865Z,640
2023-05-24T11:03:24.952Z,776
2023-05-24T11:04:24.865Z,728
2023-05-24T11:05:26.114Z,800
2023-05-24T11:06:26.058Z,960
2023-05-24T11:07:26.686Z,892
2023-05-24T11:08:27.788Z,760
2023-05-24T11:09:27.593Z,848
2023-05-24T11:10:28.524Z,1264
2023-05-24T11:11:38.005Z,1408
2023-05-24T11:13:30.800Z,1564
2023-05-24T11:14:31.507Z,1496
2023-05-24T11:15:32.461Z,1640
2023-05-24T11:16:33.336Z,2004
2023-05-24T11:17:34.634Z,2356
2023-05-24T11:18:34.238Z,2428
2023-05-24T11:19:35.134Z,2020
2023-05-24T11:20:35.491Z,1712
2023-05-24T11:21:35.855Z,1500
2023-05-24T11:22:35.783Z,1464
2023-05-24T11:23:38.403Z,1440
2023-05-24T11:24:36.802Z,1396
2023-05-24T11:25:37.977Z,1388
2023-05-24T11:26:37.956Z,1456
2023-05-24T11:27:38.546Z,1400
2023-05-24T11:28:39.322Z,1384
2023-05-24T11:29:43.611Z,1260
2023-05-24T11:30:39.784Z,1492
2023-05-24T11:31:47.062Z,1752
2023-05-24T11:32:40.781Z,1644
2023-05-24T11:33:40.880Z,1768
2023-05-24T11:34:40.652Z,1760
2023-05-24T11:35:41.590Z,1640
2023-05-24T11:36:42.786Z,1764
2023-05-24T11:37:57.042Z,1760
2023-05-24T11:39:44.803Z,1616
2023-05-24T11:40:46.126Z,1504
2023-05-24T11:41:45.861Z,1392
2023-05-24T11:42:46.799Z,1328
2023-05-24T11:43:46.948Z,1252
2023-05-24T11:44:47.091Z,1220
2023-05-24T11:45:47.976Z,1200
2023-05-24T11:46:48.642Z,1204
2023-05-24T11:47:50.058Z,1104
2023-05-24T11:48:52.745Z,1016
2023-05-24T11:49:50.592Z,952
2023-05-24T11:51:01.501Z,852
2023-05-24T11:52:53.049Z,852
2023-05-24T11:53:54.823Z,836
2023-05-24T11:54:54.638Z,844
2023-05-24T11:55:55.528Z,800
2023-05-24T11:56:56.225Z,740
2023-05-24T11:57:57.337Z,780
2023-05-24T11:58:58.188Z,764
2023-05-24T11:59:58.181Z,612
2023-05-24T12:00:58.872Z,488
2023-05-24T12:01:59.893Z,444
2023-05-24T12:03:03.155Z,444
2023-05-24T12:04:01.517Z,448
2023-05-24T12:05:01.296Z,400
2023-05-24T12:06:02.376Z,348
2023-05-24T12:07:02.530Z,368
2023-05-24T12:08:03.362Z,408
2023-05-24T12:09:03.508Z,464
2023-05-24T12:10:04.507Z,508
2023-05-24T12:11:04.171Z,544
2023-05-24T12:12:04.881Z,528
2023-05-24T12:13:06.011Z,476
2023-05-24T12:14:06.908Z,416
2023-05-24T12:15:07.841Z,408
2023-05-24T12:16:08.348Z,428
2023-05-24T12:17:08.560Z,460
2023-05-24T12:18:09.674Z,472
2023-05-24T12:19:38.922Z,468
2023-05-24T12:21:10.059Z,488
2023-05-24T12:22:10.861Z,480
2023-05-24T12:23:11.981Z,452
2023-05-24T12:24:12.666Z,416
2023-05-24T12:25:13.554Z,384
2023-05-24T12:26:14.335Z,356
2023-05-24T12:27:15.581Z,332
2023-05-24T12:28:16.065Z,320
2023-05-24T12:29:16.804Z,316
2023-05-24T12:30:17.582Z,308
2023-05-24T12:31:18.657Z,284
2023-05-24T12:32:21.419Z,260
2023-05-24T12:33:21.164Z,248
2023-05-24T12:34:21.107Z,244
2023-05-24T12:35:21.690Z,248
2023-05-24T12:36:22.926Z,248
2023-05-24T12:37:24.822Z,260
2023-05-24T12:38:24.347Z,264
2023-05-24T12:39:25.231Z,268
2023-05-24T12:40:25.954Z,260
2023-05-24T12:41:26.664Z,260
2023-05-24T12:42:27.558Z,256
2023-05-24T12:43:28.297Z,256
2023-05-24T12:44:28.588Z,264
2023-05-24T12:45:29.284Z,260
2023-05-24T12:46:30.707Z,244
2023-05-24T12:47:31.438Z,224
2023-05-24T12:48:31.909Z,252
2023-05-24T12:49:32.153Z,260
2023-05-24T12:50:32.123Z,272
2023-05-24T12:51:33.056Z,272
2023-05-24T12:52:35.561Z,276
2023-05-24T12:53:34.451Z,268
2023-05-24T12:54:35.293Z,268
2023-05-24T12:55:36.452Z,252
2023-05-24T12:56:36.379Z,240
2023-05-24T12:57:37.080Z,248
2023-05-24T12:58:37.710Z,236
2023-05-24T12:59:38.761Z,232
2023-05-24T13:00:38.882Z,240
2023-05-24T13:01:39.666Z,252
2023-05-24T13:02:40.144Z,268
2023-05-24T13:03:40.608Z,268
2023-05-24T13:04:40.952Z,260
2023-05-24T13:05:42.265Z,256
2023-05-24T13:06:42.317Z,248
2023-05-24T13:07:43.169Z,236
2023-05-24T13:08:46.670Z,232
2023-05-24T13:09:44.927Z,224
2023-05-24T13:10:45.971Z,224
2023-05-24T13:11:46.168Z,228
2023-05-24T13:12:47.018Z,240
2023-05-24T13:13:47.740Z,256
2023-05-24T13:14:50.159Z,268
2023-05-24T13:15:48.813Z,276
2023-05-24T13:16:50.314Z,276
2023-05-24T13:17:50.505Z,276
2023-05-24T13:18:51.652Z,276
2023-05-24T13:19:51.451Z,276
2023-05-24T13:20:53.865Z,284
2023-05-24T13:21:53.275Z,292
2023-05-24T13:22:52.888Z,308
2023-05-24T13:23:53.609Z,324
2023-05-24T13:24:53.923Z,344
2023-05-24T13:25:55.042Z,364
2023-05-24T13:27:00.381Z,376
2023-05-24T13:27:56.538Z,396
2023-05-24T13:30:00.622Z,436
2023-05-24T13:31:18.528Z,476
2023-05-24T13:32:18.714Z,504
2023-05-24T13:33:19.655Z,540
2023-05-24T13:34:20.493Z,572
2023-05-24T13:35:20.228Z,604
2023-05-24T13:36:21.161Z,628
2023-05-24T13:37:21.072Z,644
2023-05-24T13:38:22.037Z,660
2023-05-24T13:39:28.132Z,672
2023-05-24T13:40:28.703Z,668
2023-05-24T13:41:29.768Z,688
2023-05-24T13:42:30.099Z,688
2023-05-24T13:43:29.820Z,688
2023-05-24T13:44:30.972Z,684
2023-05-24T13:45:30.946Z,676
2023-05-24T13:46:32.093Z,664
2023-05-24T13:47:53.107Z,636
2023-05-24T13:49:33.889Z,608
2023-05-24T13:50:33.505Z,608
2023-05-24T13:51:34.247Z,612
2023-05-24T13:52:35.248Z,628
2023-05-24T13:53:35.979Z,652
2023-05-24T13:54:36.485Z,676
2023-05-24T13:55:37.586Z,684
2023-05-24T13:56:37.571Z,684
2023-05-24T13:57:57.810Z,660
2023-05-24T13:59:39.041Z,604
2023-05-24T14:00:39.930Z,568
2023-05-24T14:01:40.728Z,536
2023-05-24T14:02:41.695Z,520
2023-05-24T14:03:41.917Z,508
2023-05-24T14:04:43.292Z,504
2023-05-24T14:05:43.745Z,508
2023-05-24T14:06:44.023Z,516
2023-05-24T14:07:44.708Z,524
2023-05-24T14:08:46.023Z,524
2023-05-24T14:09:46.696Z,520
2023-05-24T14:10:47.233Z,532
2023-05-24T14:11:48.709Z,548
2023-05-24T14:12:56.376Z,556
2023-05-24T14:14:43.530Z,560
2023-05-24T14:15:06.645Z,564
2023-05-24T14:16:05.088Z,580
2023-05-24T14:17:05.365Z,600
2023-05-24T14:18:05.663Z,624
2023-05-24T14:19:05.757Z,656
2023-05-24T14:20:07.200Z,692
2023-05-24T14:21:07.368Z,716
2023-05-24T14:22:08.559Z,708
2023-05-24T14:23:10.264Z,700
2023-05-24T14:24:10.091Z,684
2023-05-24T14:25:10.597Z,668
2023-05-24T14:26:11.097Z,652
2023-05-24T14:27:12.169Z,648
2023-05-24T14:28:11.845Z,648
2023-05-24T14:29:12.577Z,692
2023-05-24T14:30:12.886Z,748
2023-05-24T14:31:14.074Z,772
2023-05-24T14:32:14.388Z,784
2023-05-24T14:33:14.512Z,776
2023-05-24T14:34:15.011Z,768
2023-05-24T14:35:16.001Z,784
2023-05-24T14:36:16.161Z,792
2023-05-24T14:37:15.725Z,812
2023-05-24T14:38:16.643Z,780
2023-05-24T14:39:16.551Z,764
2023-05-24T14:40:19.912Z,776
2023-05-24T14:41:17.952Z,752
2023-05-24T14:42:18.871Z,704
2023-05-24T14:43:19.590Z,652
2023-05-24T14:44:20.345Z,616
2023-05-24T14:45:21.313Z,632
2023-05-24T14:46:21.812Z,696
2023-05-24T14:47:22.359Z,856
2023-05-24T14:48:24.328Z,1064
2023-05-24T14:49:24.054Z,1160
2023-05-24T14:50:24.829Z,1132
2023-05-24T14:51:25.099Z,1048
2023-05-24T14:52:25.624Z,908
2023-05-24T14:53:26.317Z,776
2023-05-24T14:54:27.024Z,692
2023-05-24T14:55:28.147Z,676
2023-05-24T14:56:28.859Z,648
2023-05-24T14:57:29.967Z,628
2023-05-24T14:58:31.062Z,604
2023-05-24T14:59:31.007Z,592
2023-05-24T15:00:34.896Z,620
2023-05-24T15:01:32.710Z,572
2023-05-24T15:02:33.671Z,496
2023-05-24T15:03:34.594Z,448
2023-05-24T15:04:34.576Z,448
2023-05-24T15:05:34.836Z,436
2023-05-24T15:06:34.608Z,408